Nevisdale, Kentucky
Current Conditions -  °F | °C
As of 3:53 PM on Thursday 27 Nov 2014 (Local Time) from KLOZ Reporting Station
Light Snow Light Snow  
Wind Chill: 23°   Ceiling: 2800
Heat Index: 31°   Visibility: 2.5mi
Dew Point: 25°   Wind: 9mph
Humidity: 79%   Direction: 290°WNW
Pressure: 30.33"   Gusts: NA
Location:  36.69°N, 84.05°W
Report Text: KLOZ 272053Z AUTO 29008KT 2 1/2SM -SN FEW014 SCT020 OVC028 M01/M04 A3033 RMK AO2 SNB14 SLP281 P0000 60000 T10061039 51019
Loading
Personal Weather Stations






























Interactive Weather Map New forecast layout! Learn more

10-Day Weather Forecast

Advertisements
Track Severe Weather on mobile